createdAt,value
2024-03-05T00:02:00.157Z,18.87
2024-03-05T00:04:30.116Z,18.87
2024-03-05T00:07:01.188Z,18.84
2024-03-05T00:09:32.687Z,18.87
2024-03-05T00:12:05.958Z,18.87
2024-03-05T00:14:36.157Z,18.84
2024-03-05T00:17:06.654Z,18.82
2024-03-05T00:19:39.070Z,18.84
2024-03-05T00:22:10.904Z,18.75
2024-03-05T00:24:41.365Z,18.76
2024-03-05T00:27:11.459Z,18.79
2024-03-05T00:29:44.644Z,18.84
2024-03-05T00:32:16.690Z,18.81
2024-03-05T00:34:46.837Z,18.76
2024-03-05T00:37:16.742Z,18.73
2024-03-05T00:39:47.308Z,18.76
2024-03-05T00:42:18.457Z,18.78
2024-03-05T00:44:50.448Z,18.81
2024-03-05T00:47:24.120Z,18.84
2024-03-05T00:49:54.398Z,18.82
2024-03-05T00:52:26.556Z,18.81
2024-03-05T00:55:00.129Z,18.75
2024-03-05T00:57:33.702Z,18.76
2024-03-05T01:00:04.690Z,18.73
2024-03-05T01:02:36.114Z,18.75
2024-03-05T01:05:09.524Z,18.76
2024-03-05T01:07:40.880Z,18.76
2024-03-05T01:10:12.289Z,18.79
2024-03-05T01:12:43.367Z,18.82
2024-03-05T01:15:15.367Z,18.84
2024-03-05T01:17:45.608Z,18.84
2024-03-05T01:20:18.597Z,18.78
2024-03-05T01:22:50.133Z,18.75
2024-03-05T01:25:21.894Z,18.73
2024-03-05T01:27:52.188Z,18.73
2024-03-05T01:30:22.093Z,18.72
2024-03-05T01:32:53.848Z,18.72
2024-03-05T01:35:25.486Z,18.73
2024-03-05T01:37:56.721Z,18.72
2024-03-05T01:40:27.425Z,18.73
2024-03-05T01:42:57.441Z,18.75
2024-03-05T01:45:28.425Z,18.75
2024-03-05T01:48:02.080Z,18.76
2024-03-05T01:50:33.146Z,18.76
2024-03-05T01:53:04.110Z,18.76
2024-03-05T01:55:37.535Z,18.72
2024-03-05T01:58:11.840Z,18.61
2024-03-05T02:00:42.811Z,18.51
2024-03-05T02:03:13.590Z,18.48
2024-03-05T02:05:51.550Z,18.51
2024-03-05T02:08:23.686Z,18.41
2024-03-05T02:10:54.633Z,18.40
2024-03-05T02:13:25.513Z,18.44
2024-03-05T02:15:57.343Z,18.44
2024-03-05T02:18:28.765Z,18.41
2024-03-05T02:21:05.398Z,18.38
2024-03-05T02:23:35.531Z,18.36
2024-03-05T02:26:08.007Z,18.33
2024-03-05T02:28:40.996Z,18.29
2024-03-05T02:31:11.198Z,18.27
2024-03-05T02:33:42.300Z,18.17
2024-03-05T02:36:14.384Z,18.14
2024-03-05T02:38:45.778Z,18.16
2024-03-05T02:41:16.485Z,18.10
2024-03-05T02:43:48.427Z,18.06
2024-03-05T02:46:20.789Z,18.00
2024-03-05T02:48:51.719Z,17.94
2024-03-05T02:51:21.752Z,17.89
2024-03-05T02:53:51.967Z,17.81
2024-03-05T02:56:22.925Z,17.76
2024-03-05T02:58:54.469Z,17.68
2024-03-05T03:01:25.841Z,17.68
2024-03-05T03:03:56.800Z,17.66
2024-03-05T03:06:26.892Z,17.59
2024-03-05T03:08:58.843Z,17.53
2024-03-05T03:11:30.361Z,17.55
2024-03-05T03:14:00.613Z,17.52
2024-03-05T03:16:30.630Z,17.58
2024-03-05T03:19:01.229Z,17.49
2024-03-05T03:21:32.985Z,17.45
2024-03-05T03:24:04.834Z,17.45
2024-03-05T03:26:35.473Z,17.45
2024-03-05T03:29:07.864Z,17.51
2024-03-05T03:31:41.645Z,17.55
2024-03-05T03:34:13.038Z,17.53
2024-03-05T03:36:43.685Z,17.53
2024-03-05T03:39:26.026Z,17.58
2024-03-05T03:41:58.528Z,17.56
2024-03-05T03:44:29.816Z,17.53
2024-03-05T03:47:00.576Z,17.49
2024-03-05T03:49:30.543Z,17.48
2024-03-05T03:52:01.641Z,17.49
2024-03-05T03:54:32.403Z,17.48
2024-03-05T03:57:03.050Z,17.46
2024-03-05T03:59:38.068Z,17.48
2024-03-05T04:02:09.607Z,17.49
2024-03-05T04:04:40.652Z,17.51
2024-03-05T04:07:11.280Z,17.49
2024-03-05T04:09:41.356Z,17.53
2024-03-05T04:12:14.816Z,17.49
2024-03-05T04:14:46.699Z,17.45
2024-03-05T04:17:17.343Z,17.45
2024-03-05T04:19:48.190Z,17.45
2024-03-05T04:22:19.905Z,17.48
2024-03-05T04:25:02.337Z,17.46
2024-03-05T04:27:32.861Z,17.42
2024-03-05T04:30:05.107Z,17.39
2024-03-05T04:32:38.048Z,17.32
2024-03-05T04:35:13.571Z,17.28
2024-03-05T04:37:45.161Z,17.23
2024-03-05T04:40:16.372Z,17.30
2024-03-05T04:42:51.224Z,17.28
2024-03-05T04:45:25.024Z,17.30
2024-03-05T04:47:55.355Z,17.28
2024-03-05T04:50:25.442Z,17.32
2024-03-05T04:52:57.746Z,17.31
2024-03-05T04:55:29.089Z,17.28
2024-03-05T04:57:59.112Z,17.23
2024-03-05T05:00:29.211Z,17.24
2024-03-05T05:03:01.383Z,17.23
2024-03-05T05:05:34.161Z,17.17
2024-03-05T05:08:06.209Z,17.20
2024-03-05T05:10:36.684Z,17.20
2024-03-05T05:13:08.017Z,17.28
2024-03-05T05:15:39.781Z,17.24
2024-03-05T05:18:10.059Z,17.24
2024-03-05T05:20:39.901Z,17.24
2024-03-05T05:23:10.786Z,17.25
2024-03-05T05:25:41.538Z,17.31
2024-03-05T05:28:13.920Z,17.35
2024-03-05T05:30:44.706Z,17.42
2024-03-05T05:33:14.931Z,17.45
2024-03-05T05:35:46.341Z,17.49
2024-03-05T05:38:19.473Z,17.51
2024-03-05T05:40:49.967Z,17.51
2024-03-05T05:43:20.952Z,17.52
2024-03-05T05:45:52.623Z,17.55
2024-03-05T05:48:29.703Z,17.55
2024-03-05T05:51:00.918Z,17.46
2024-03-05T05:53:31.578Z,17.39
2024-03-05T05:56:02.673Z,17.36
2024-03-05T05:58:38.637Z,17.42
2024-03-05T06:01:11.937Z,17.39
2024-03-05T06:03:51.032Z,17.34
2024-03-05T06:06:22.231Z,17.32
2024-03-05T06:08:54.214Z,17.28
2024-03-05T06:11:25.434Z,17.35
2024-03-05T06:13:55.889Z,17.34
2024-03-05T06:16:26.969Z,17.35
2024-03-05T06:18:59.314Z,17.38
2024-03-05T06:21:30.100Z,17.42
2024-03-05T06:24:02.111Z,17.34
2024-03-05T06:26:41.251Z,17.34
2024-03-05T06:29:14.157Z,17.39
2024-03-05T06:31:44.204Z,17.41
2024-03-05T06:34:14.052Z,17.41
2024-03-05T06:36:48.049Z,17.34
2024-03-05T06:39:22.106Z,17.39
2024-03-05T06:41:56.192Z,17.42
2024-03-05T06:44:27.863Z,17.46
2024-03-05T06:46:58.912Z,17.49
2024-03-05T06:49:31.808Z,17.49
2024-03-05T06:52:22.780Z,17.55
2024-03-05T06:55:11.135Z,17.59
2024-03-05T06:57:41.731Z,17.63
2024-03-05T07:00:17.564Z,17.65
2024-03-05T07:02:48.970Z,17.68
2024-03-05T07:05:19.173Z,17.65
2024-03-05T07:07:49.061Z,17.71
2024-03-05T07:10:23.724Z,17.66
2024-03-05T07:12:56.298Z,17.71
2024-03-05T07:15:27.468Z,17.78
2024-03-05T07:17:57.930Z,17.83
2024-03-05T07:20:30.459Z,17.90
2024-03-05T07:23:02.832Z,17.93
2024-03-05T07:25:34.928Z,17.97
2024-03-05T07:28:04.939Z,18.00
2024-03-05T07:30:37.322Z,17.99
2024-03-05T07:33:09.563Z,18.00
2024-03-05T07:35:46.155Z,18.02
2024-03-05T07:38:17.717Z,18.00
2024-03-05T07:40:48.541Z,18.03
2024-03-05T07:43:19.646Z,18.00
2024-03-05T07:45:51.348Z,18.02
2024-03-05T07:48:21.356Z,18.06
2024-03-05T07:50:51.524Z,18.04
2024-03-05T07:53:23.434Z,18.04
2024-03-05T07:55:59.409Z,18.09
2024-03-05T07:58:29.266Z,18.02
2024-03-05T08:01:00.394Z,18.04
2024-03-05T08:03:31.200Z,18.06
2024-03-05T08:06:02.089Z,18.10
2024-03-05T08:08:32.880Z,18.12
2024-03-05T08:11:03.243Z,18.10
2024-03-05T08:13:37.096Z,18.13
2024-03-05T08:16:10.735Z,18.10
2024-03-05T08:18:43.690Z,18.06
2024-03-05T08:21:16.531Z,18.12
2024-03-05T08:23:46.520Z,18.17
2024-03-05T08:26:17.356Z,18.21
2024-03-05T08:28:48.778Z,18.21
2024-03-05T08:31:19.230Z,18.24
2024-03-05T08:33:49.426Z,18.20
2024-03-05T08:36:20.797Z,18.20
2024-03-05T08:38:52.116Z,18.20
2024-03-05T08:41:22.908Z,18.20
2024-03-05T08:43:53.205Z,18.21
2024-03-05T08:46:24.365Z,18.20
2024-03-05T08:48:55.397Z,18.16
2024-03-05T08:51:25.735Z,18.14
2024-03-05T08:53:57.579Z,18.12
2024-03-05T08:56:29.096Z,18.06
2024-03-05T08:59:01.089Z,18.06
2024-03-05T09:01:31.521Z,18.07
2024-03-05T09:04:03.333Z,18.06
2024-03-05T09:06:34.402Z,18.07
2024-03-05T09:09:06.055Z,18.06
2024-03-05T09:11:37.507Z,18.04
2024-03-05T09:14:07.795Z,18.04
2024-03-05T09:16:41.363Z,18.02
2024-03-05T09:19:12.979Z,18.03
2024-03-05T09:21:46.618Z,18.02
2024-03-05T09:24:16.881Z,18.03
2024-03-05T09:26:49.786Z,18.07
2024-03-05T09:29:21.186Z,18.06
2024-03-05T09:31:51.205Z,18.13
2024-03-05T09:34:22.338Z,18.10
2024-03-05T09:36:53.657Z,18.12
2024-03-05T09:39:25.441Z,18.12
2024-03-05T09:41:56.794Z,18.10
2024-03-05T09:44:27.633Z,18.12
2024-03-05T09:47:04.061Z,18.17
2024-03-05T09:49:36.298Z,18.16
2024-03-05T09:52:07.668Z,18.17
2024-03-05T09:54:38.848Z,18.18
2024-03-05T09:57:10.603Z,18.31
2024-03-05T09:59:42.236Z,18.36
2024-03-05T10:02:15.594Z,18.45
2024-03-05T10:04:47.931Z,18.50
2024-03-05T10:07:29.797Z,18.58
2024-03-05T10:10:12.436Z,18.68
2024-03-05T10:12:43.385Z,18.72
2024-03-05T10:15:23.153Z,18.78
2024-03-05T10:17:56.910Z,18.84
2024-03-05T10:20:32.649Z,18.91
2024-03-05T10:23:05.041Z,18.95
2024-03-05T10:25:37.567Z,19.06
2024-03-05T10:28:11.653Z,19.20
2024-03-05T10:30:45.123Z,19.45
2024-03-05T10:33:16.651Z,19.58
2024-03-05T10:35:52.741Z,19.74
2024-03-05T10:38:25.630Z,19.95
2024-03-05T10:40:58.369Z,20.01
2024-03-05T10:43:29.647Z,20.24
2024-03-05T10:45:59.601Z,20.32
2024-03-05T10:48:32.788Z,20.38
2024-03-05T10:51:05.190Z,20.47
2024-03-05T10:53:36.828Z,20.57
2024-03-05T10:56:09.115Z,20.66
2024-03-05T10:58:46.267Z,20.74
2024-03-05T11:01:26.401Z,20.69
2024-03-05T11:03:58.998Z,20.72
2024-03-05T11:06:29.602Z,20.83
2024-03-05T11:09:03.043Z,20.86
2024-03-05T11:11:34.778Z,20.87
2024-03-05T11:14:06.614Z,20.94
2024-03-05T11:16:37.225Z,21.05
2024-03-05T11:19:13.200Z,21.08
2024-03-05T11:21:45.682Z,21.18
2024-03-05T11:24:15.881Z,21.25
2024-03-05T11:26:47.374Z,21.42
2024-03-05T11:29:25.158Z,21.52
2024-03-05T11:32:00.530Z,21.66
2024-03-05T11:34:31.418Z,21.93
2024-03-05T11:37:14.801Z,22.07
2024-03-05T11:39:49.200Z,22.07
2024-03-05T11:42:23.399Z,21.97
2024-03-05T11:44:54.668Z,21.88
2024-03-05T11:47:26.499Z,21.81
2024-03-05T11:49:57.540Z,21.73
2024-03-05T11:52:29.767Z,21.90
2024-03-05T11:55:08.703Z,22.03
2024-03-05T11:57:38.890Z,21.86
2024-03-05T12:00:22.040Z,21.83
2024-03-05T12:02:58.972Z,22.06
2024-03-05T12:05:32.109Z,22.09
2024-03-05T12:08:05.424Z,22.21
2024-03-05T12:10:38.600Z,22.40
2024-03-05T12:13:12.944Z,22.25
2024-03-05T12:15:43.246Z,22.18
2024-03-05T12:18:13.634Z,22.17
2024-03-05T12:20:44.471Z,22.17
2024-03-05T12:23:40.611Z,22.17
2024-03-05T12:26:16.723Z,22.17
2024-03-05T12:28:47.326Z,22.12
2024-03-05T12:31:18.029Z,22.30
2024-03-05T12:33:50.511Z,22.43
2024-03-05T12:36:21.720Z,22.61
2024-03-05T12:38:52.305Z,22.81
2024-03-05T12:41:22.902Z,22.85
2024-03-05T12:43:58.333Z,22.84
2024-03-05T12:46:29.101Z,22.96
2024-03-05T12:49:01.219Z,23.01
2024-03-05T12:51:33.205Z,22.92
2024-03-05T12:54:12.402Z,23.03
2024-03-05T12:56:47.940Z,23.10
2024-03-05T12:59:23.418Z,23.16
2024-03-05T13:01:56.503Z,23.29
2024-03-05T13:04:30.253Z,23.54
2024-03-05T13:07:02.882Z,23.56
2024-03-05T13:09:33.224Z,23.63
2024-03-05T13:12:03.150Z,23.82
2024-03-05T13:14:34.111Z,23.94
2024-03-05T13:17:09.125Z,23.97
2024-03-05T13:19:40.730Z,24.24
2024-03-05T13:22:11.007Z,24.42
2024-03-05T13:24:41.636Z,24.60
2024-03-05T13:27:12.730Z,24.66
2024-03-05T13:29:44.063Z,24.60
2024-03-05T13:32:14.105Z,24.80
2024-03-05T13:34:46.188Z,25.27
2024-03-05T13:37:18.100Z,25.68
2024-03-05T13:39:49.365Z,25.49
2024-03-05T13:42:21.597Z,25.64
2024-03-05T13:44:51.828Z,25.96
2024-03-05T13:47:23.847Z,26.47
2024-03-05T13:49:55.695Z,26.33
2024-03-05T13:52:28.411Z,26.04
2024-03-05T13:54:59.003Z,26.34
2024-03-05T13:57:31.937Z,26.50
2024-03-05T14:00:03.364Z,26.29
2024-03-05T14:02:42.017Z,25.88
2024-03-05T14:05:13.429Z,25.38
2024-03-05T14:07:46.785Z,25.27
2024-03-05T14:10:18.975Z,25.64
2024-03-05T14:12:51.426Z,25.83
2024-03-05T14:15:24.649Z,25.59
2024-03-05T14:17:55.880Z,25.59
2024-03-05T14:20:30.481Z,25.55
2024-03-05T14:23:01.720Z,25.49
2024-03-05T14:25:32.394Z,25.61
2024-03-05T14:28:04.934Z,26.06
2024-03-05T14:30:37.130Z,27.20
2024-03-05T14:33:07.894Z,27.46
2024-03-05T14:35:39.390Z,27.02
2024-03-05T14:38:18.720Z,26.45
2024-03-05T14:40:56.545Z,26.13
2024-03-05T14:43:27.055Z,26.23
2024-03-05T14:45:57.611Z,25.99
2024-03-05T14:48:30.212Z,26.20
2024-03-05T14:51:02.767Z,26.17
2024-03-05T14:53:36.276Z,26.34
2024-03-05T14:56:12.604Z,26.65
2024-03-05T14:58:44.276Z,26.37
2024-03-05T15:01:22.823Z,25.82
2024-03-05T15:03:53.928Z,25.52
2024-03-05T15:06:24.348Z,25.34
2024-03-05T15:08:55.749Z,25.37
2024-03-05T15:11:27.166Z,25.52
2024-03-05T15:13:57.904Z,25.76
2024-03-05T15:16:28.922Z,26.04
2024-03-05T15:19:02.655Z,26.10
2024-03-05T15:21:33.832Z,26.36
2024-03-05T15:24:06.327Z,26.19
2024-03-05T15:26:40.540Z,25.90
2024-03-05T15:29:14.322Z,25.79
2024-03-05T15:31:47.059Z,25.61
2024-03-05T15:34:17.518Z,25.48
2024-03-05T15:36:47.527Z,25.27
2024-03-05T15:39:19.284Z,25.04
2024-03-05T15:41:51.320Z,24.88
2024-03-05T15:44:21.842Z,24.69
2024-03-05T15:46:51.743Z,24.48
2024-03-05T15:49:22.250Z,24.56
2024-03-05T15:51:53.833Z,24.53
2024-03-05T15:54:28.072Z,24.63
2024-03-05T15:57:03.100Z,24.73
2024-03-05T15:59:51.493Z,24.70
2024-03-05T16:02:25.995Z,24.56
2024-03-05T16:05:14.108Z,24.53
2024-03-05T16:07:47.734Z,24.62
2024-03-05T16:10:18.026Z,24.73
2024-03-05T16:12:49.515Z,24.79
2024-03-05T16:15:21.783Z,24.94
2024-03-05T16:17:52.139Z,25.03
2024-03-05T16:20:23.092Z,25.14
2024-03-05T16:22:56.967Z,25.35
2024-03-05T16:25:30.659Z,26.09
2024-03-05T16:28:04.512Z,26.45
2024-03-05T16:30:35.434Z,27.90
2024-03-05T16:33:07.505Z,28.45
2024-03-05T16:35:39.627Z,29.04
2024-03-05T16:38:11.550Z,29.13
2024-03-05T16:40:42.611Z,29.72
2024-03-05T16:43:14.027Z,29.61
2024-03-05T16:45:49.139Z,29.37
2024-03-05T16:48:20.210Z,28.28
2024-03-05T16:50:50.393Z,29.21
2024-03-05T16:53:20.473Z,28.55
2024-03-05T16:55:51.457Z,28.27
2024-03-05T16:58:22.520Z,27.83
2024-03-05T17:00:59.139Z,27.63
2024-03-05T17:03:32.193Z,27.54
2024-03-05T17:06:04.061Z,27.90
2024-03-05T17:08:36.912Z,27.90
2024-03-05T17:11:11.436Z,27.84
2024-03-05T17:13:43.765Z,27.61
2024-03-05T17:16:14.192Z,28.07
2024-03-05T17:18:45.130Z,27.66
2024-03-05T17:21:16.940Z,27.06
2024-03-05T17:23:49.144Z,27.40
2024-03-05T17:26:20.243Z,28.82
2024-03-05T17:28:54.028Z,29.52
2024-03-05T17:31:27.824Z,29.47
2024-03-05T17:33:57.844Z,28.89
2024-03-05T17:36:28.707Z,28.45
2024-03-05T17:39:00.028Z,27.98
2024-03-05T17:41:31.843Z,27.40
2024-03-05T17:44:02.147Z,26.98
2024-03-05T17:46:32.130Z,26.57
2024-03-05T17:49:02.839Z,26.29
2024-03-05T17:51:33.888Z,26.00
2024-03-05T17:54:05.993Z,25.92
2024-03-05T17:56:36.682Z,27.26
2024-03-05T17:59:08.830Z,28.36
2024-03-05T18:01:41.595Z,29.15
2024-03-05T18:04:13.377Z,28.82
2024-03-05T18:06:44.285Z,29.38
2024-03-05T18:09:20.934Z,29.58
2024-03-05T18:11:54.274Z,29.54
2024-03-05T18:14:26.501Z,29.82
2024-03-05T18:16:56.979Z,29.69
2024-03-05T18:19:27.624Z,30.08
2024-03-05T18:21:58.515Z,29.23
2024-03-05T18:24:30.195Z,28.19
2024-03-05T18:27:05.983Z,27.63
2024-03-05T18:29:36.197Z,27.20
2024-03-05T18:32:08.336Z,26.94
2024-03-05T18:34:41.225Z,26.71
2024-03-05T18:37:14.035Z,26.47
2024-03-05T18:39:44.348Z,26.10
2024-03-05T18:42:17.445Z,25.97
2024-03-05T18:44:49.213Z,26.55
2024-03-05T18:47:21.049Z,27.84
2024-03-05T18:49:53.487Z,28.82
2024-03-05T18:52:25.778Z,29.30
2024-03-05T18:54:57.023Z,29.66
2024-03-05T18:57:27.400Z,29.37
2024-03-05T19:00:00.291Z,29.90
2024-03-05T19:02:31.383Z,30.13
2024-03-05T19:05:03.278Z,29.08
2024-03-05T19:07:33.660Z,27.94
2024-03-05T19:10:04.221Z,27.26
2024-03-05T19:12:34.902Z,26.85
2024-03-05T19:15:06.709Z,26.65
2024-03-05T19:17:41.475Z,26.48
2024-03-05T19:20:15.797Z,26.41
2024-03-05T19:22:46.958Z,26.44
2024-03-05T19:25:22.509Z,26.39
2024-03-05T19:27:54.304Z,26.40
2024-03-05T19:30:24.580Z,26.33
2024-03-05T19:32:54.814Z,26.10
2024-03-05T19:35:27.363Z,26.29
2024-03-05T19:38:00.264Z,26.67
2024-03-05T19:40:33.027Z,27.39
2024-03-05T19:43:03.376Z,27.45
2024-03-05T19:45:33.299Z,27.98
2024-03-05T19:48:06.210Z,28.48
2024-03-05T19:50:38.146Z,28.63
2024-03-05T19:53:10.302Z,28.02
2024-03-05T19:55:40.470Z,27.78
2024-03-05T19:58:12.590Z,27.91
2024-03-05T20:00:46.275Z,27.90
2024-03-05T20:03:17.060Z,27.94
2024-03-05T20:05:51.407Z,27.74
2024-03-05T20:08:22.929Z,27.38
2024-03-05T20:10:54.419Z,27.20
2024-03-05T20:13:25.081Z,27.10
2024-03-05T20:15:57.195Z,26.91
2024-03-05T20:18:28.722Z,26.41
2024-03-05T20:21:01.361Z,25.99
2024-03-05T20:23:31.695Z,25.65
2024-03-05T20:26:01.683Z,25.35
2024-03-05T20:28:31.908Z,25.06
2024-03-05T20:31:03.187Z,24.87
2024-03-05T20:33:34.597Z,24.76
2024-03-05T20:36:04.874Z,24.59
2024-03-05T20:38:34.827Z,24.49
2024-03-05T20:41:07.211Z,24.35
2024-03-05T20:43:40.787Z,24.24
2024-03-05T20:46:12.149Z,24.14
2024-03-05T20:48:42.199Z,24.00
2024-03-05T20:51:12.101Z,23.82
2024-03-05T20:53:44.783Z,23.75
2024-03-05T20:56:17.271Z,23.67
2024-03-05T20:58:48.085Z,23.50
2024-03-05T21:01:18.493Z,23.49
2024-03-05T21:03:48.958Z,23.31
2024-03-05T21:06:20.304Z,23.26
2024-03-05T21:08:52.383Z,23.22
2024-03-05T21:11:23.323Z,23.12
2024-03-05T21:13:53.609Z,22.98
2024-03-05T21:16:25.126Z,22.91
2024-03-05T21:18:57.819Z,22.75
2024-03-05T21:21:28.289Z,22.72
2024-03-05T21:23:58.647Z,22.54
2024-03-05T21:26:44.791Z,22.31
2024-03-05T21:29:20.881Z,22.29
2024-03-05T21:31:53.114Z,22.06
2024-03-05T21:34:23.385Z,21.93
2024-03-05T21:36:53.330Z,21.69
2024-03-05T21:39:25.409Z,21.42
2024-03-05T21:41:58.042Z,21.27
2024-03-05T21:44:35.048Z,21.01
2024-03-05T21:47:12.274Z,20.84
2024-03-05T21:49:44.630Z,20.53
2024-03-05T21:52:15.725Z,20.21
2024-03-05T21:54:45.965Z,19.94
2024-03-05T21:57:16.014Z,19.68
2024-03-05T21:59:47.277Z,19.43
2024-03-05T22:02:18.654Z,19.22
2024-03-05T22:04:50.609Z,19.10
2024-03-05T22:07:21.062Z,18.91
2024-03-05T22:09:51.471Z,18.82
2024-03-05T22:12:22.221Z,18.82
2024-03-05T22:14:54.378Z,18.89
2024-03-05T22:17:24.525Z,19.18
2024-03-05T22:19:54.452Z,19.40
2024-03-05T22:22:29.604Z,19.67
2024-03-05T22:25:01.222Z,19.89
2024-03-05T22:27:32.413Z,19.79
2024-03-05T22:30:08.085Z,19.94
2024-03-05T22:32:54.019Z,19.88
2024-03-05T22:35:25.193Z,19.63
2024-03-05T22:37:58.268Z,19.36
2024-03-05T22:40:28.457Z,19.18
2024-03-05T22:42:58.697Z,18.91
2024-03-05T22:45:30.349Z,18.65
2024-03-05T22:49:04.437Z,18.62
2024-03-05T22:51:36.145Z,18.47
2024-03-05T22:54:15.726Z,18.24
2024-03-05T22:56:50.213Z,18.09
2024-03-05T22:59:21.429Z,18.00
2024-03-05T23:01:53.288Z,17.85
2024-03-05T23:04:24.686Z,17.69
2024-03-05T23:06:55.990Z,17.55
2024-03-05T23:09:26.141Z,17.46
2024-03-05T23:11:59.937Z,17.41
2024-03-05T23:14:30.328Z,17.39
2024-03-05T23:17:00.244Z,17.35
2024-03-05T23:19:32.259Z,17.34
2024-03-05T23:22:06.592Z,17.23
2024-03-05T23:24:36.859Z,17.23
2024-03-05T23:27:06.998Z,17.17
2024-03-05T23:29:37.502Z,17.14
2024-03-05T23:32:07.694Z,17.08
2024-03-05T23:34:39.268Z,17.06
2024-03-05T23:37:10.388Z,17.04
2024-03-05T23:39:41.650Z,17.02
2024-03-05T23:42:12.631Z,16.87
2024-03-05T23:44:43.577Z,16.76
2024-03-05T23:47:14.839Z,16.88
2024-03-05T23:49:46.697Z,16.88
2024-03-05T23:52:17.670Z,16.84
2024-03-05T23:54:49.244Z,16.70
2024-03-05T23:57:21.030Z,16.57
2024-03-05T23:59:51.003Z,16.45
